createdAt,value
2022-12-27T00:00:15.470Z,5.56
2022-12-27T00:03:17.718Z,5.63
2022-12-27T00:06:22.302Z,5.60
2022-12-27T00:09:24.591Z,5.52
2022-12-27T00:12:26.771Z,5.53
2022-12-27T00:15:28.945Z,5.50
2022-12-27T00:18:31.071Z,5.48
2022-12-27T00:21:33.580Z,5.44
2022-12-27T00:24:35.827Z,5.43
2022-12-27T00:27:38.364Z,5.28
2022-12-27T00:30:40.463Z,5.23
2022-12-27T00:33:44.503Z,5.25
2022-12-27T00:36:46.538Z,5.29
2022-12-27T00:39:48.618Z,5.34
2022-12-27T00:42:50.773Z,5.36
2022-12-27T00:45:53.081Z,5.43
2022-12-27T00:48:55.607Z,5.47
2022-12-27T00:51:57.618Z,5.51
2022-12-27T00:54:59.681Z,5.57
2022-12-27T00:58:02.054Z,5.70
2022-12-27T01:01:13.035Z,5.75
2022-12-27T01:04:17.394Z,5.81
2022-12-27T01:07:19.869Z,5.91
2022-12-27T01:10:22.049Z,6.03
2022-12-27T01:13:24.149Z,6.04
2022-12-27T01:16:28.189Z,6.07
2022-12-27T01:19:30.425Z,6.11
2022-12-27T01:22:32.531Z,6.12
2022-12-27T01:25:34.579Z,6.12
2022-12-27T01:28:36.984Z,6.17
2022-12-27T01:31:39.355Z,6.20
2022-12-27T01:34:41.558Z,6.19
2022-12-27T01:37:43.703Z,6.19
2022-12-27T01:40:45.725Z,6.21
2022-12-27T01:43:47.781Z,6.27
2022-12-27T01:46:50.135Z,6.31
2022-12-27T01:50:10.143Z,6.33
2022-12-27T01:53:33.661Z,6.36
2022-12-27T01:56:35.741Z,6.39
2022-12-27T01:59:39.026Z,6.41
2022-12-27T02:02:41.596Z,6.40
2022-12-27T02:05:43.810Z,6.42
2022-12-27T02:08:57.941Z,6.45
2022-12-27T02:12:02.125Z,6.41
2022-12-27T02:15:04.779Z,6.41
2022-12-27T02:18:06.888Z,6.26
2022-12-27T02:21:44.531Z,6.17
2022-12-27T02:24:46.501Z,6.12
2022-12-27T02:28:10.050Z,6.11
2022-12-27T02:31:20.984Z,6.11
2022-12-27T02:34:28.942Z,6.16
2022-12-27T02:37:34.853Z,6.20
2022-12-27T02:40:59.684Z,6.22
2022-12-27T02:44:20.402Z,6.17
2022-12-27T02:47:43.436Z,6.15
2022-12-27T02:51:20.137Z,6.11
2022-12-27T02:54:40.683Z,6.20
2022-12-27T02:57:56.174Z,6.19
2022-12-27T03:01:49.230Z,6.18
2022-12-27T03:05:24.040Z,6.27
2022-12-27T03:08:35.084Z,6.25
2022-12-27T03:12:12.225Z,6.24
2022-12-27T03:15:55.313Z,6.26
2022-12-27T03:19:00.282Z,6.22
2022-12-27T03:22:22.795Z,6.19
2022-12-27T03:25:29.131Z,6.18
2022-12-27T03:28:51.676Z,6.13
2022-12-27T03:32:19.816Z,6.11
2022-12-27T03:35:23.669Z,6.06
2022-12-27T03:38:27.605Z,5.93
2022-12-27T03:42:11.346Z,5.87
2022-12-27T03:45:13.574Z,5.75
2022-12-27T03:48:20.461Z,5.63
2022-12-27T03:51:25.150Z,5.47
2022-12-27T03:54:32.059Z,5.37
2022-12-27T03:57:34.431Z,5.30
2022-12-27T04:00:36.576Z,5.21
2022-12-27T04:03:38.800Z,5.22
2022-12-27T04:06:40.919Z,5.13
2022-12-27T04:10:01.694Z,5.07
2022-12-27T04:13:22.373Z,5.04
2022-12-27T04:16:42.945Z,4.93
2022-12-27T04:20:03.749Z,4.74
2022-12-27T04:23:24.824Z,4.63
2022-12-27T04:26:45.633Z,4.61
2022-12-27T04:30:06.336Z,4.51
2022-12-27T04:33:27.168Z,4.55
2022-12-27T04:36:29.226Z,4.48
2022-12-27T04:39:32.417Z,4.49
2022-12-27T04:42:53.133Z,4.52
2022-12-27T04:46:13.811Z,4.46
2022-12-27T04:49:45.469Z,4.41
2022-12-27T04:53:06.673Z,4.31
2022-12-27T04:56:08.795Z,4.19
2022-12-27T04:59:29.594Z,4.14
2022-12-27T05:02:31.808Z,4.13
2022-12-27T05:05:35.653Z,4.09
2022-12-27T05:08:56.590Z,4.06
2022-12-27T05:12:17.906Z,4.10
2022-12-27T05:15:20.047Z,4.14
2022-12-27T05:18:22.244Z,4.20
2022-12-27T05:21:24.897Z,4.28
2022-12-27T05:24:45.511Z,4.34
2022-12-27T05:27:47.551Z,4.36
2022-12-27T05:30:49.650Z,4.40
2022-12-27T05:33:52.896Z,4.45
2022-12-27T05:36:55.000Z,4.49
2022-12-27T05:39:56.997Z,4.55
2022-12-27T05:43:00.758Z,4.56
2022-12-27T05:46:12.234Z,4.57
2022-12-27T05:49:14.481Z,4.62
2022-12-27T05:52:16.514Z,4.66
2022-12-27T05:55:18.632Z,4.69
2022-12-27T05:58:20.814Z,4.69
2022-12-27T06:01:22.998Z,4.66
2022-12-27T06:04:25.123Z,4.60
2022-12-27T06:07:27.195Z,4.59
2022-12-27T06:10:29.339Z,4.55
2022-12-27T06:13:31.946Z,4.50
2022-12-27T06:16:34.052Z,4.45
2022-12-27T06:19:36.471Z,4.38
2022-12-27T06:22:38.553Z,4.32
2022-12-27T06:25:40.598Z,4.27
2022-12-27T06:28:42.770Z,4.25
2022-12-27T06:31:45.004Z,4.26
2022-12-27T06:34:47.119Z,4.22
2022-12-27T06:37:49.176Z,4.17
2022-12-27T06:40:51.298Z,4.22
2022-12-27T06:43:58.201Z,4.23
2022-12-27T06:47:00.320Z,4.23
2022-12-27T06:50:03.266Z,4.20
2022-12-27T06:53:05.439Z,4.19
2022-12-27T06:56:13.359Z,4.21
2022-12-27T06:59:15.574Z,4.26
2022-12-27T07:02:18.040Z,4.36
2022-12-27T07:05:20.223Z,4.46
2022-12-27T07:08:22.454Z,4.52
2022-12-27T07:11:25.198Z,4.61
2022-12-27T07:14:27.852Z,4.70
2022-12-27T07:17:30.029Z,4.74
2022-12-27T07:20:32.139Z,4.81
2022-12-27T07:23:35.294Z,4.88
2022-12-27T07:26:37.448Z,4.94
2022-12-27T07:29:45.263Z,4.96
2022-12-27T07:32:47.870Z,5.00
2022-12-27T07:35:49.955Z,5.07
2022-12-27T07:38:52.431Z,5.12
2022-12-27T07:41:54.575Z,5.15
2022-12-27T07:44:56.619Z,5.19
2022-12-27T07:47:58.743Z,5.22
2022-12-27T07:51:01.363Z,5.21
2022-12-27T07:54:03.860Z,5.18
2022-12-27T07:57:05.944Z,5.20
2022-12-27T08:00:08.795Z,5.21
2022-12-27T08:03:11.463Z,5.22
2022-12-27T08:06:35.092Z,5.16
2022-12-27T08:09:40.546Z,5.20
2022-12-27T08:12:42.580Z,5.23
2022-12-27T08:15:44.777Z,5.24
2022-12-27T08:18:47.232Z,5.30
2022-12-27T08:21:49.360Z,5.38
2022-12-27T08:24:51.503Z,5.48
2022-12-27T08:27:53.607Z,5.57
2022-12-27T08:30:55.756Z,5.69
2022-12-27T08:33:58.832Z,5.77
2022-12-27T08:37:01.025Z,5.83
2022-12-27T08:40:03.539Z,5.93
2022-12-27T08:43:05.784Z,5.95
2022-12-27T08:46:08.729Z,5.95
2022-12-27T08:49:10.880Z,5.94
2022-12-27T08:52:12.993Z,6.02
2022-12-27T08:55:15.184Z,5.97
2022-12-27T08:58:17.209Z,6.01
2022-12-27T09:01:19.779Z,6.12
2022-12-27T09:04:23.022Z,6.19
2022-12-27T09:07:25.066Z,6.29
2022-12-27T09:10:27.565Z,6.28
2022-12-27T09:13:29.835Z,6.33
2022-12-27T09:16:34.329Z,6.38
2022-12-27T09:19:36.636Z,6.46
2022-12-27T09:22:39.227Z,6.55
2022-12-27T09:25:41.378Z,6.61
2022-12-27T09:28:44.291Z,6.64
2022-12-27T09:31:46.694Z,6.60
2022-12-27T09:34:48.768Z,6.55
2022-12-27T09:37:51.775Z,6.58
2022-12-27T09:40:56.955Z,6.66
2022-12-27T09:44:07.509Z,6.80
2022-12-27T09:47:31.911Z,6.96
2022-12-27T09:50:40.716Z,7.05
2022-12-27T09:54:10.893Z,7.10
2022-12-27T09:57:26.546Z,7.14
2022-12-27T10:00:34.709Z,7.18
2022-12-27T10:03:38.263Z,7.23
2022-12-27T10:06:49.155Z,7.34
2022-12-27T10:10:29.573Z,7.50
2022-12-27T10:13:41.992Z,7.56
2022-12-27T10:17:04.084Z,7.64
2022-12-27T10:20:30.463Z,7.66
2022-12-27T10:23:35.085Z,7.64
2022-12-27T10:26:38.899Z,7.60
2022-12-27T10:29:42.735Z,7.60
2022-12-27T10:32:44.927Z,7.59
2022-12-27T10:35:48.746Z,7.59
2022-12-27T10:38:50.950Z,7.58
2022-12-27T10:42:32.125Z,7.56
2022-12-27T10:45:37.177Z,7.56
2022-12-27T10:49:11.438Z,7.56
2022-12-27T10:52:16.205Z,7.56
2022-12-27T10:55:39.303Z,7.59
2022-12-27T10:58:50.269Z,7.60
2022-12-27T11:02:04.125Z,7.59
2022-12-27T11:05:29.645Z,7.60
2022-12-27T11:08:32.042Z,7.61
2022-12-27T11:11:34.109Z,7.63
2022-12-27T11:14:37.343Z,7.62
2022-12-27T11:17:46.090Z,7.68
2022-12-27T11:20:51.268Z,7.76
2022-12-27T11:23:57.708Z,8.01
2022-12-27T11:27:00.411Z,8.34
2022-12-27T11:30:02.729Z,8.67
2022-12-27T11:33:25.213Z,8.78
2022-12-27T11:36:40.856Z,8.74
2022-12-27T11:39:52.061Z,8.74
2022-12-27T11:43:15.652Z,8.76
2022-12-27T11:46:42.697Z,8.72
2022-12-27T11:49:56.446Z,8.83
2022-12-27T11:53:23.682Z,8.75
2022-12-27T11:56:37.053Z,8.68
2022-12-27T11:59:53.474Z,8.61
2022-12-27T12:03:07.592Z,8.58
2022-12-27T12:06:34.494Z,8.59
2022-12-27T12:10:04.850Z,8.73
2022-12-27T12:13:18.849Z,8.78
2022-12-27T12:16:29.754Z,8.87
2022-12-27T12:19:46.611Z,8.92
2022-12-27T12:23:19.035Z,8.84
2022-12-27T12:26:23.184Z,8.87
2022-12-27T12:29:52.920Z,8.87
2022-12-27T12:33:15.054Z,8.87
2022-12-27T12:36:53.064Z,8.68
2022-12-27T12:40:04.112Z,8.55
2022-12-27T12:43:43.744Z,8.54
2022-12-27T12:47:00.898Z,8.66
2022-12-27T12:50:18.264Z,8.80
2022-12-27T12:53:32.732Z,8.79
2022-12-27T12:57:05.479Z,8.79
2022-12-27T13:00:40.054Z,8.78
2022-12-27T13:03:47.902Z,8.78
2022-12-27T13:07:08.735Z,8.74
2022-12-27T13:10:33.310Z,8.78
2022-12-27T13:13:54.362Z,8.74
2022-12-27T13:17:05.282Z,8.67
2022-12-27T13:20:41.622Z,8.59
2022-12-27T13:24:26.287Z,8.51
2022-12-27T13:27:40.985Z,8.46
2022-12-27T13:30:52.120Z,8.32
2022-12-27T13:34:03.784Z,8.31
2022-12-27T13:37:13.740Z,8.28
2022-12-27T13:40:28.981Z,8.22
2022-12-27T13:43:45.781Z,8.07
2022-12-27T13:46:59.833Z,8.06
2022-12-27T13:50:26.513Z,7.99
2022-12-27T13:53:51.238Z,7.93
2022-12-27T13:57:11.709Z,7.89
2022-12-27T14:00:20.981Z,7.81
2022-12-27T14:03:59.939Z,7.74
2022-12-27T14:07:26.390Z,7.65
2022-12-27T14:10:46.579Z,7.62
2022-12-27T14:13:49.613Z,7.56
2022-12-27T14:17:06.841Z,7.53
2022-12-27T14:20:17.442Z,7.47
2022-12-27T14:23:34.914Z,7.40
2022-12-27T14:27:12.807Z,7.35
2022-12-27T14:30:59.698Z,7.31
2022-12-27T14:34:10.515Z,7.27
2022-12-27T14:37:49.837Z,7.26
2022-12-27T14:41:29.581Z,7.26
2022-12-27T14:45:02.798Z,7.23
2022-12-27T14:48:39.604Z,7.19
2022-12-27T14:52:01.627Z,7.11
2022-12-27T14:55:36.029Z,7.02
2022-12-27T14:58:53.230Z,6.97
2022-12-27T15:02:17.185Z,6.94
2022-12-27T15:05:19.447Z,6.91
2022-12-27T15:08:41.201Z,6.85
2022-12-27T15:12:05.245Z,6.82
2022-12-27T15:15:19.400Z,6.78
2022-12-27T15:18:41.655Z,6.75
2022-12-27T15:21:46.811Z,6.74
2022-12-27T15:25:19.657Z,6.72
2022-12-27T15:28:42.788Z,6.67
2022-12-27T15:32:07.953Z,6.60
2022-12-27T15:35:16.003Z,6.55
2022-12-27T15:38:27.232Z,6.46
2022-12-27T15:41:55.958Z,6.35
2022-12-27T15:45:23.222Z,6.19
2022-12-27T15:48:39.812Z,6.03
2022-12-27T15:52:27.871Z,5.96
2022-12-27T15:55:57.506Z,5.99
2022-12-27T15:59:29.746Z,5.93
2022-12-27T16:02:33.282Z,5.88
2022-12-27T16:05:49.238Z,5.88
2022-12-27T16:09:18.626Z,5.88
2022-12-27T16:12:39.576Z,5.88
2022-12-27T16:15:53.366Z,5.92
2022-12-27T16:18:58.412Z,5.85
2022-12-27T16:22:00.509Z,5.77
2022-12-27T16:25:26.975Z,5.64
2022-12-27T16:28:35.785Z,5.49
2022-12-27T16:31:45.517Z,5.37
2022-12-27T16:34:51.836Z,5.30
2022-12-27T16:37:56.054Z,5.28
2022-12-27T16:41:15.632Z,5.20
2022-12-27T16:44:54.916Z,5.09
2022-12-27T16:48:06.413Z,5.00
2022-12-27T16:51:14.684Z,4.85
2022-12-27T16:54:27.992Z,4.75
2022-12-27T16:57:39.664Z,4.66
2022-12-27T17:00:44.175Z,4.53
2022-12-27T17:03:48.502Z,4.49
2022-12-27T17:06:56.298Z,4.48
2022-12-27T17:10:27.268Z,4.37
2022-12-27T17:13:55.591Z,4.23
2022-12-27T17:17:04.092Z,4.18
2022-12-27T17:20:13.194Z,4.13
2022-12-27T17:23:15.669Z,4.08
2022-12-27T17:26:38.476Z,4.32
2022-12-27T17:29:59.553Z,4.49
2022-12-27T17:33:35.938Z,4.64
2022-12-27T17:36:59.094Z,4.65
2022-12-27T17:40:11.365Z,4.52
2022-12-27T17:43:38.732Z,4.44
2022-12-27T17:47:03.047Z,4.40
2022-12-27T17:50:12.275Z,4.36
2022-12-27T17:53:36.864Z,4.29
2022-12-27T17:57:15.634Z,4.26
2022-12-27T18:00:26.280Z,4.21
2022-12-27T18:03:36.103Z,4.16
2022-12-27T18:06:40.018Z,4.13
2022-12-27T18:09:51.940Z,4.12
2022-12-27T18:13:02.256Z,4.10
2022-12-27T18:16:18.967Z,4.06
2022-12-27T18:19:22.237Z,4.03
2022-12-27T18:22:24.875Z,4.01
2022-12-27T18:25:40.679Z,4.00
2022-12-27T18:28:43.617Z,4.00
2022-12-27T18:31:49.559Z,4.00
2022-12-27T18:34:57.648Z,3.93
2022-12-27T18:38:01.881Z,3.91
2022-12-27T18:41:09.046Z,3.85
2022-12-27T18:44:22.995Z,3.84
2022-12-27T18:47:29.629Z,3.81
2022-12-27T18:50:34.743Z,3.80
2022-12-27T18:53:40.739Z,3.79
2022-12-27T18:56:43.200Z,3.76
2022-12-27T19:00:02.766Z,3.72
2022-12-27T19:03:17.757Z,3.64
2022-12-27T19:06:20.722Z,3.62
2022-12-27T19:09:30.924Z,3.62
2022-12-27T19:12:40.718Z,3.58
2022-12-27T19:15:44.334Z,3.52
2022-12-27T19:18:51.942Z,3.43
2022-12-27T19:21:54.806Z,3.32
2022-12-27T19:25:02.202Z,3.29
2022-12-27T19:28:11.055Z,3.20
2022-12-27T19:31:22.108Z,3.15
2022-12-27T19:34:27.690Z,3.07
2022-12-27T19:37:32.647Z,2.99
2022-12-27T19:40:34.930Z,2.93
2022-12-27T19:43:43.793Z,2.87
2022-12-27T19:46:46.529Z,2.81
2022-12-27T19:49:50.941Z,2.77
2022-12-27T19:52:53.637Z,2.70
2022-12-27T19:55:58.384Z,2.67
2022-12-27T19:59:00.759Z,2.62
2022-12-27T20:02:03.447Z,2.58
2022-12-27T20:05:07.140Z,2.52
2022-12-27T20:08:34.548Z,2.44
2022-12-27T20:11:37.430Z,2.40
2022-12-27T20:14:40.315Z,2.32
2022-12-27T20:17:45.135Z,2.25
2022-12-27T20:20:48.804Z,2.16
2022-12-27T20:23:51.386Z,2.09
2022-12-27T20:26:55.589Z,1.98
2022-12-27T20:29:58.232Z,1.92
2022-12-27T20:33:01.399Z,1.90
2022-12-27T20:36:04.647Z,1.88
2022-12-27T20:39:07.853Z,1.85
2022-12-27T20:42:10.743Z,1.82
2022-12-27T20:45:13.375Z,1.78
2022-12-27T20:48:16.144Z,1.74
2022-12-27T20:51:22.366Z,1.73
2022-12-27T20:54:25.146Z,1.70
2022-12-27T20:57:28.093Z,1.66
2022-12-27T21:00:31.146Z,1.66
2022-12-27T21:03:33.482Z,1.67
2022-12-27T21:06:35.927Z,1.65
2022-12-27T21:09:38.177Z,1.65
2022-12-27T21:12:40.807Z,1.67
2022-12-27T21:15:46.561Z,1.68
2022-12-27T21:18:49.406Z,1.66
2022-12-27T21:21:51.856Z,1.63
2022-12-27T21:24:54.322Z,1.63
2022-12-27T21:27:56.545Z,1.59
2022-12-27T21:30:59.048Z,1.59
2022-12-27T21:34:01.402Z,1.54
2022-12-27T21:37:07.437Z,1.51
2022-12-27T21:40:12.471Z,1.43
2022-12-27T21:43:14.557Z,1.40
2022-12-27T21:46:18.400Z,1.35
2022-12-27T21:49:20.733Z,1.32
2022-12-27T21:52:22.846Z,1.29
2022-12-27T21:55:24.867Z,1.29
2022-12-27T21:58:30.545Z,1.31
2022-12-27T22:01:50.389Z,1.29
2022-12-27T22:04:53.600Z,1.27
2022-12-27T22:07:56.182Z,1.25
2022-12-27T22:10:58.377Z,1.22
2022-12-27T22:14:01.112Z,1.20
2022-12-27T22:17:03.769Z,1.17
2022-12-27T22:20:06.664Z,1.16
2022-12-27T22:23:08.813Z,1.13
2022-12-27T22:26:13.960Z,1.07
2022-12-27T22:29:16.389Z,1.06
2022-12-27T22:32:18.644Z,1.07
2022-12-27T22:35:20.774Z,1.04
2022-12-27T22:38:22.868Z,1.06
2022-12-27T22:41:35.510Z,1.07
2022-12-27T22:44:37.555Z,1.07
2022-12-27T22:47:39.732Z,1.06
2022-12-27T22:50:41.859Z,1.10
2022-12-27T22:53:44.328Z,1.11
2022-12-27T22:56:46.418Z,1.11
2022-12-27T22:59:48.614Z,1.10
2022-12-27T23:02:50.824Z,1.05
2022-12-27T23:06:00.406Z,1.03
2022-12-27T23:09:04.230Z,1.01
2022-12-27T23:12:06.930Z,0.99
2022-12-27T23:15:09.518Z,0.94
2022-12-27T23:18:11.590Z,0.92
2022-12-27T23:21:22.729Z,0.92
2022-12-27T23:24:26.652Z,0.80
2022-12-27T23:27:28.811Z,0.84
2022-12-27T23:30:31.028Z,0.77
2022-12-27T23:33:33.746Z,0.77
2022-12-27T23:36:35.819Z,0.79
2022-12-27T23:39:37.874Z,0.79
2022-12-27T23:42:39.983Z,0.74
2022-12-27T23:45:42.015Z,0.70
2022-12-27T23:48:44.819Z,0.65
2022-12-27T23:51:47.049Z,0.70
2022-12-27T23:54:49.204Z,0.64
2022-12-27T23:57:51.315Z,0.61
